Thomson, New York
Current Conditions -  °F | °C
As of 9:53 AM on Saturday 27 Dec 2014 (Local Time) from KGFL Reporting Station
Overcast Overcast  
Wind Chill: 34°   Ceiling: 3600
Heat Index: 34°   Visibility: 7mi
Dew Point: 29°   Wind: 0mph
Humidity: 82%   Direction: NA
Pressure: 30.22"   Gusts: NA
Location:  43.09°N, 73.5018°W
Report Text: KGFL 271453Z AUTO 00000KT 7SM OVC036 01/M02 A3022 RMK AO2 SLP242 T00111017 53009
Loading
Personal Weather Stations






























Interactive Weather Map New forecast layout! Learn more

10-Day Weather Forecast

Advertisements
Track Severe Weather on mobile